createdAt,value
2022-07-25T00:02:00.946Z,17.30
2022-07-25T00:04:29.918Z,17.30
2022-07-25T00:06:57.903Z,17.20
2022-07-25T00:09:25.580Z,17.20
2022-07-25T00:11:53.632Z,17.18
2022-07-25T00:14:21.432Z,17.20
2022-07-25T00:16:49.178Z,17.20
2022-07-25T00:19:17.562Z,17.30
2022-07-25T00:21:45.809Z,17.30
2022-07-25T00:24:13.540Z,17.30
2022-07-25T00:26:41.699Z,17.30
2022-07-25T00:29:09.808Z,17.20
2022-07-25T00:31:37.553Z,17.20
2022-07-25T00:34:05.752Z,17.26
2022-07-25T00:36:33.782Z,17.30
2022-07-25T00:39:01.530Z,17.30
2022-07-25T00:41:29.561Z,17.30
2022-07-25T00:43:57.718Z,17.24
2022-07-25T00:46:25.801Z,17.18
2022-07-25T00:48:55.169Z,17.20
2022-07-25T00:51:23.362Z,17.14
2022-07-25T00:53:51.113Z,17.20
2022-07-25T00:56:19.016Z,17.20
2022-07-25T00:58:46.944Z,17.12
2022-07-25T01:01:15.200Z,17.10
2022-07-25T01:03:43.503Z,17.02
2022-07-25T01:06:11.900Z,17.00
2022-07-25T01:08:39.951Z,17.00
2022-07-25T01:11:08.250Z,17.00
2022-07-25T01:13:36.075Z,17.00
2022-07-25T01:16:04.331Z,17.00
2022-07-25T01:18:32.172Z,17.00
2022-07-25T01:21:01.605Z,16.94
2022-07-25T01:23:29.334Z,16.90
2022-07-25T01:25:57.102Z,16.90
2022-07-25T01:28:25.548Z,17.00
2022-07-25T01:30:53.851Z,17.00
2022-07-25T01:33:23.037Z,17.10
2022-07-25T01:35:51.125Z,17.02
2022-07-25T01:38:19.054Z,17.00
2022-07-25T01:40:47.378Z,17.00
2022-07-25T01:43:15.233Z,17.00
2022-07-25T01:45:42.975Z,17.00
2022-07-25T01:48:10.749Z,17.08
2022-07-25T01:50:38.877Z,17.10
2022-07-25T01:53:06.641Z,17.10
2022-07-25T01:55:34.568Z,17.10
2022-07-25T01:58:02.301Z,17.10
2022-07-25T02:00:30.305Z,17.10
2022-07-25T02:03:16.810Z,17.10
2022-07-25T02:05:44.511Z,17.10
2022-07-25T02:08:12.199Z,17.10
2022-07-25T02:10:39.942Z,17.20
2022-07-25T02:13:07.673Z,17.20
2022-07-25T02:15:36.261Z,17.22
2022-07-25T02:18:05.053Z,17.20
2022-07-25T02:20:32.872Z,17.20
2022-07-25T02:23:00.761Z,17.20
2022-07-25T02:25:28.457Z,17.20
2022-07-25T02:27:56.234Z,17.20
2022-07-25T02:30:24.414Z,17.20
2022-07-25T02:32:53.390Z,17.20
2022-07-25T02:35:21.301Z,17.20
2022-07-25T02:37:49.129Z,17.20
2022-07-25T02:40:16.881Z,17.20
2022-07-25T02:42:44.547Z,17.22
2022-07-25T02:45:12.547Z,17.26
2022-07-25T02:47:40.258Z,17.30
2022-07-25T02:50:09.567Z,17.30
2022-07-25T02:52:43.959Z,17.30
2022-07-25T02:55:12.169Z,17.30
2022-07-25T02:57:39.910Z,17.30
2022-07-25T03:00:08.809Z,17.30
2022-07-25T03:02:36.564Z,17.20
2022-07-25T03:05:10.236Z,17.20
2022-07-25T03:07:39.236Z,17.20
2022-07-25T03:10:11.366Z,17.20
2022-07-25T03:12:41.143Z,17.20
2022-07-25T03:15:11.287Z,17.20
2022-07-25T03:17:39.813Z,17.10
2022-07-25T03:20:09.576Z,17.10
2022-07-25T03:22:37.957Z,17.10
2022-07-25T03:25:06.652Z,17.10
2022-07-25T03:27:43.845Z,17.10
2022-07-25T03:30:12.331Z,17.10
2022-07-25T03:32:41.464Z,17.08
2022-07-25T03:35:09.867Z,17.02
2022-07-25T03:37:37.568Z,17.10
2022-07-25T03:40:06.848Z,17.08
2022-07-25T03:42:35.618Z,17.10
2022-07-25T03:45:05.247Z,17.20
2022-07-25T03:47:33.059Z,17.22
2022-07-25T03:50:00.740Z,17.30
2022-07-25T03:52:28.549Z,17.32
2022-07-25T03:54:56.254Z,17.40
2022-07-25T03:57:23.952Z,17.50
2022-07-25T03:59:51.915Z,17.50
2022-07-25T04:02:19.624Z,17.60
2022-07-25T04:04:47.541Z,17.60
2022-07-25T04:07:15.351Z,17.60
2022-07-25T04:09:43.224Z,17.60
2022-07-25T04:12:11.240Z,17.54
2022-07-25T04:14:38.964Z,17.52
2022-07-25T04:17:06.820Z,17.50
2022-07-25T04:19:34.935Z,17.50
2022-07-25T04:22:02.866Z,17.50
2022-07-25T04:24:31.604Z,17.50
2022-07-25T04:26:59.316Z,17.48
2022-07-25T04:29:27.410Z,17.48
2022-07-25T04:31:55.287Z,17.42
2022-07-25T04:34:23.799Z,17.40
2022-07-25T04:36:51.687Z,17.40
2022-07-25T04:39:19.381Z,17.40
2022-07-25T04:41:47.145Z,17.44
2022-07-25T04:44:14.915Z,17.48
2022-07-25T04:46:42.639Z,17.50
2022-07-25T04:49:10.404Z,17.50
2022-07-25T04:51:38.267Z,17.50
2022-07-25T04:54:07.046Z,17.48
2022-07-25T04:56:35.547Z,17.40
2022-07-25T04:59:06.856Z,17.40
2022-07-25T05:01:35.990Z,17.50
2022-07-25T05:04:04.418Z,17.50
2022-07-25T05:06:33.287Z,17.50
2022-07-25T05:09:01.087Z,17.42
2022-07-25T05:11:28.757Z,17.40
2022-07-25T05:13:56.569Z,17.40
2022-07-25T05:16:24.423Z,17.40
2022-07-25T05:18:52.253Z,17.40
2022-07-25T05:21:20.025Z,17.40
2022-07-25T05:23:47.742Z,17.46
2022-07-25T05:26:15.411Z,17.50
2022-07-25T05:28:43.114Z,17.40
2022-07-25T05:31:10.918Z,17.48
2022-07-25T05:33:38.856Z,17.50
2022-07-25T05:36:08.756Z,17.50
2022-07-25T05:38:36.488Z,17.54
2022-07-25T05:41:04.906Z,17.60
2022-07-25T05:43:32.891Z,17.60
2022-07-25T05:46:03.840Z,17.60
2022-07-25T05:48:32.408Z,17.60
2022-07-25T05:51:00.373Z,17.62
2022-07-25T05:53:28.093Z,17.70
2022-07-25T05:55:55.822Z,17.70
2022-07-25T05:58:29.455Z,17.70
2022-07-25T06:00:59.131Z,17.70
2022-07-25T06:03:27.063Z,17.70
2022-07-25T06:05:56.715Z,17.70
2022-07-25T06:08:24.450Z,17.68
2022-07-25T06:10:53.297Z,17.70
2022-07-25T06:13:21.068Z,17.70
2022-07-25T06:15:51.473Z,17.72
2022-07-25T06:18:19.503Z,17.74
2022-07-25T06:20:47.602Z,17.70
2022-07-25T06:23:16.419Z,17.70
2022-07-25T06:25:50.171Z,17.70
2022-07-25T06:28:19.091Z,17.70
2022-07-25T06:30:48.683Z,17.70
2022-07-25T06:33:16.426Z,17.78
2022-07-25T06:35:44.152Z,17.80
2022-07-25T06:38:11.975Z,17.80
2022-07-25T06:40:41.634Z,17.80
2022-07-25T06:43:10.042Z,17.86
2022-07-25T06:45:37.822Z,17.88
2022-07-25T06:48:06.318Z,17.90
2022-07-25T06:50:34.035Z,17.90
2022-07-25T06:53:01.789Z,17.90
2022-07-25T06:55:29.496Z,17.90
2022-07-25T06:57:57.403Z,17.90
2022-07-25T07:00:25.930Z,17.98
2022-07-25T07:02:58.486Z,18.00
2022-07-25T07:05:30.402Z,18.00
2022-07-25T07:08:01.685Z,18.04
2022-07-25T07:10:31.154Z,18.10
2022-07-25T07:13:07.642Z,18.10
2022-07-25T07:15:37.793Z,18.10
2022-07-25T07:18:07.099Z,18.10
2022-07-25T07:20:35.249Z,18.12
2022-07-25T07:23:03.482Z,18.12
2022-07-25T07:25:31.601Z,18.20
2022-07-25T07:27:59.732Z,18.20
2022-07-25T07:30:52.169Z,18.20
2022-07-25T07:33:15.452Z,18.20
2022-07-25T07:35:46.794Z,18.22
2022-07-25T07:38:15.176Z,18.28
2022-07-25T07:40:42.850Z,18.30
2022-07-25T07:43:11.054Z,18.30
2022-07-25T07:45:38.809Z,18.36
2022-07-25T07:48:07.675Z,18.40
2022-07-25T07:50:36.473Z,18.40
2022-07-25T07:53:04.356Z,18.50
2022-07-25T07:55:44.212Z,18.50
2022-07-25T07:58:17.370Z,18.60
2022-07-25T08:00:52.152Z,18.60
2022-07-25T08:03:21.977Z,18.70
2022-07-25T08:05:51.807Z,18.70
2022-07-25T08:08:20.926Z,18.70
2022-07-25T08:10:50.065Z,18.80
2022-07-25T08:13:23.734Z,18.80
2022-07-25T08:15:58.056Z,18.80
2022-07-25T08:18:30.084Z,18.82
2022-07-25T08:20:58.476Z,18.82
2022-07-25T08:23:27.978Z,18.90
2022-07-25T08:25:55.678Z,18.90
2022-07-25T08:28:23.370Z,18.90
2022-07-25T08:30:51.556Z,18.90
2022-07-25T08:33:19.885Z,18.90
2022-07-25T08:35:54.602Z,18.90
2022-07-25T08:38:25.228Z,18.90
2022-07-25T08:40:55.378Z,18.80
2022-07-25T08:43:23.746Z,18.80
2022-07-25T08:45:55.051Z,18.80
2022-07-25T08:48:27.799Z,18.80
2022-07-25T08:50:57.441Z,18.80
2022-07-25T08:53:35.138Z,18.88
2022-07-25T08:56:13.754Z,18.90
2022-07-25T08:58:44.527Z,18.90
2022-07-25T09:01:14.924Z,18.90
2022-07-25T09:03:43.888Z,18.90
2022-07-25T09:06:22.777Z,18.90
2022-07-25T09:09:00.432Z,18.90
2022-07-25T09:11:37.322Z,18.90
2022-07-25T09:14:14.857Z,18.90
2022-07-25T09:16:45.551Z,18.90
2022-07-25T09:19:14.550Z,18.90
2022-07-25T09:21:45.465Z,18.92
2022-07-25T09:24:17.663Z,19.00
2022-07-25T09:26:52.448Z,19.00
2022-07-25T09:29:30.190Z,19.08
2022-07-25T09:32:00.512Z,19.10
2022-07-25T09:34:37.869Z,19.10
2022-07-25T09:37:14.498Z,19.10
2022-07-25T09:39:51.460Z,19.20
2022-07-25T09:42:26.838Z,19.20
2022-07-25T09:45:21.237Z,19.20
2022-07-25T09:47:55.311Z,19.30
2022-07-25T09:50:27.028Z,19.30
2022-07-25T09:52:57.696Z,19.30
2022-07-25T09:55:25.586Z,19.30
2022-07-25T09:57:54.880Z,19.30
2022-07-25T10:00:26.956Z,19.30
2022-07-25T10:03:41.535Z,19.30
2022-07-25T10:06:49.884Z,19.34
2022-07-25T10:09:18.293Z,19.40
2022-07-25T10:12:07.743Z,19.40
2022-07-25T10:14:37.796Z,19.40
2022-07-25T10:17:07.036Z,19.40
2022-07-25T10:19:52.006Z,19.40
2022-07-25T10:22:39.751Z,19.44
2022-07-25T10:25:16.588Z,19.40
2022-07-25T10:27:58.316Z,19.40
2022-07-25T10:30:36.264Z,19.44
2022-07-25T10:33:13.413Z,19.50
2022-07-25T10:35:42.421Z,19.50
2022-07-25T10:38:11.578Z,19.50
2022-07-25T10:40:44.522Z,19.60
2022-07-25T10:43:18.550Z,19.60
2022-07-25T10:45:58.144Z,19.60
2022-07-25T10:48:30.076Z,19.60
2022-07-25T10:51:04.630Z,19.60
2022-07-25T10:53:45.128Z,19.58
2022-07-25T10:56:25.676Z,19.60
2022-07-25T10:58:58.167Z,19.56
2022-07-25T11:01:27.026Z,19.60
2022-07-25T11:04:01.973Z,19.60
2022-07-25T11:06:37.802Z,19.60
2022-07-25T11:09:18.610Z,19.60
2022-07-25T11:11:51.571Z,19.66
2022-07-25T11:14:42.616Z,19.60
2022-07-25T11:17:16.305Z,19.60
2022-07-25T11:19:54.419Z,19.60
2022-07-25T11:22:22.660Z,19.60
2022-07-25T11:24:50.852Z,19.60
2022-07-25T11:27:24.861Z,19.60
2022-07-25T11:29:53.086Z,19.60
2022-07-25T11:32:21.566Z,19.68
2022-07-25T11:34:54.269Z,19.70
2022-07-25T11:37:22.515Z,19.70
2022-07-25T11:39:53.011Z,19.80
2022-07-25T11:42:22.089Z,19.80
2022-07-25T11:44:52.941Z,19.78
2022-07-25T11:47:33.226Z,19.70
2022-07-25T11:50:04.798Z,19.70
2022-07-25T11:52:36.321Z,19.60
2022-07-25T11:55:08.622Z,19.60
2022-07-25T11:57:41.568Z,19.60
2022-07-25T12:00:22.197Z,19.60
2022-07-25T12:02:50.875Z,19.52
2022-07-25T12:05:31.351Z,19.50
2022-07-25T12:08:19.514Z,19.50
2022-07-25T12:10:51.476Z,19.50
2022-07-25T12:13:27.655Z,19.50
2022-07-25T12:16:00.225Z,19.50
2022-07-25T12:18:28.817Z,19.50
2022-07-25T12:20:57.734Z,19.40
2022-07-25T12:23:25.474Z,19.40
2022-07-25T12:25:53.162Z,19.40
2022-07-25T12:28:20.840Z,19.40
2022-07-25T12:30:55.904Z,19.40
2022-07-25T12:33:24.783Z,19.44
2022-07-25T12:35:52.702Z,19.50
2022-07-25T12:38:20.440Z,19.50
2022-07-25T12:40:48.354Z,19.50
2022-07-25T12:43:16.373Z,19.50
2022-07-25T12:45:44.474Z,19.52
2022-07-25T12:48:15.176Z,19.58
2022-07-25T12:50:44.458Z,19.60
2022-07-25T12:53:13.745Z,19.60
2022-07-25T12:55:42.011Z,19.60
2022-07-25T12:58:09.883Z,19.60
2022-07-25T13:00:37.876Z,19.70
2022-07-25T13:03:05.705Z,19.80
2022-07-25T13:05:33.461Z,19.80
2022-07-25T13:08:03.699Z,19.90
2022-07-25T13:10:31.679Z,20.00
2022-07-25T13:12:59.374Z,20.10
2022-07-25T13:15:28.314Z,20.20
2022-07-25T13:17:56.556Z,20.30
2022-07-25T13:20:24.706Z,20.30
2022-07-25T13:22:52.467Z,20.30
2022-07-25T13:25:20.379Z,20.28
2022-07-25T13:27:49.100Z,20.20
2022-07-25T13:30:16.886Z,20.14
2022-07-25T13:32:45.147Z,20.10
2022-07-25T13:35:16.406Z,20.10
2022-07-25T13:37:47.749Z,20.10
2022-07-25T13:40:15.471Z,20.10
2022-07-25T13:42:43.217Z,20.10
2022-07-25T13:45:11.481Z,20.16
2022-07-25T13:47:41.675Z,20.20
2022-07-25T13:50:10.467Z,20.20
2022-07-25T13:52:38.229Z,20.20
2022-07-25T13:55:07.546Z,20.20
2022-07-25T13:57:36.035Z,20.20
2022-07-25T14:00:07.158Z,20.30
2022-07-25T14:02:35.270Z,20.30
2022-07-25T14:05:04.955Z,20.30
2022-07-25T14:07:36.136Z,20.30
2022-07-25T14:10:07.593Z,20.30
2022-07-25T14:12:37.462Z,20.30
2022-07-25T14:15:07.233Z,20.34
2022-07-25T14:17:35.776Z,20.44
2022-07-25T14:20:04.030Z,20.58
2022-07-25T14:22:31.790Z,20.70
2022-07-25T14:24:59.434Z,20.80
2022-07-25T14:27:27.425Z,20.90
2022-07-25T14:29:55.174Z,20.90
2022-07-25T14:32:22.877Z,20.90
2022-07-25T14:34:52.492Z,20.90
2022-07-25T14:37:22.417Z,20.90
2022-07-25T14:39:50.776Z,20.90
2022-07-25T14:42:18.692Z,20.90
2022-07-25T14:44:46.415Z,20.80
2022-07-25T14:47:14.253Z,20.70
2022-07-25T14:49:43.671Z,20.80
2022-07-25T14:52:12.782Z,21.00
2022-07-25T14:54:40.924Z,21.10
2022-07-25T14:57:09.962Z,21.20
2022-07-25T14:59:37.732Z,21.20
2022-07-25T15:02:05.475Z,21.20
2022-07-25T15:04:33.245Z,21.28
2022-07-25T15:07:01.126Z,21.20
2022-07-25T15:09:28.882Z,21.10
2022-07-25T15:11:57.530Z,21.14
2022-07-25T15:14:25.230Z,21.16
2022-07-25T15:16:53.029Z,21.20
2022-07-25T15:19:20.794Z,21.20
2022-07-25T15:21:48.544Z,21.20
2022-07-25T15:24:16.271Z,21.20
2022-07-25T15:26:44.147Z,21.20
2022-07-25T15:29:13.646Z,21.10
2022-07-25T15:31:41.497Z,21.10
2022-07-25T15:34:09.342Z,21.10
2022-07-25T15:36:37.180Z,21.10
2022-07-25T15:39:05.163Z,21.02
2022-07-25T15:41:33.923Z,21.00
2022-07-25T15:44:01.710Z,21.00
2022-07-25T15:46:29.800Z,20.92
2022-07-25T15:48:58.143Z,20.90
2022-07-25T15:51:25.944Z,20.80
2022-07-25T15:53:53.593Z,20.80
2022-07-25T15:56:21.587Z,20.70
2022-07-25T15:58:50.177Z,20.60
2022-07-25T16:01:18.071Z,20.56
2022-07-25T16:03:46.569Z,20.48
2022-07-25T16:06:18.836Z,20.40
2022-07-25T16:08:48.737Z,20.38
2022-07-25T16:11:16.444Z,20.30
2022-07-25T16:13:44.989Z,20.30
2022-07-25T16:16:13.005Z,20.28
2022-07-25T16:18:40.701Z,20.46
2022-07-25T16:21:08.490Z,20.70
2022-07-25T16:23:41.487Z,20.90
2022-07-25T16:26:13.648Z,21.20
2022-07-25T16:28:41.667Z,21.40
2022-07-25T16:31:09.669Z,21.60
2022-07-25T16:33:37.967Z,21.80
2022-07-25T16:36:06.449Z,21.70
2022-07-25T16:38:34.927Z,21.70
2022-07-25T16:41:02.772Z,21.88
2022-07-25T16:43:30.531Z,22.00
2022-07-25T16:45:58.606Z,22.04
2022-07-25T16:48:26.546Z,22.10
2022-07-25T16:50:54.458Z,22.20
2022-07-25T16:53:22.399Z,22.20
2022-07-25T16:55:50.205Z,22.10
2022-07-25T16:58:18.194Z,22.10
2022-07-25T17:00:45.872Z,22.10
2022-07-25T17:03:13.606Z,22.18
2022-07-25T17:05:41.340Z,22.20
2022-07-25T17:08:09.046Z,22.20
2022-07-25T17:10:37.018Z,22.14
2022-07-25T17:13:05.170Z,21.90
2022-07-25T17:15:33.022Z,22.00
2022-07-25T17:18:00.810Z,21.90
2022-07-25T17:20:28.694Z,21.80
2022-07-25T17:22:56.454Z,21.60
2022-07-25T17:25:24.181Z,21.30
2022-07-25T17:27:51.964Z,21.20
2022-07-25T17:30:19.698Z,21.00
2022-07-25T17:32:47.612Z,20.90
2022-07-25T17:35:15.282Z,20.82
2022-07-25T17:37:43.027Z,20.80
2022-07-25T17:40:11.592Z,20.70
2022-07-25T17:42:44.958Z,20.64
2022-07-25T17:45:15.252Z,20.60
2022-07-25T17:47:44.681Z,20.50
2022-07-25T17:50:13.224Z,20.50
2022-07-25T17:52:40.949Z,20.42
2022-07-25T17:55:09.480Z,20.48
2022-07-25T17:57:42.382Z,20.42
2022-07-25T18:00:12.694Z,20.42
2022-07-25T18:02:42.081Z,20.40
2022-07-25T18:05:10.239Z,20.40
2022-07-25T18:07:40.908Z,20.30
2022-07-25T18:10:09.351Z,20.20
2022-07-25T18:12:37.200Z,20.20
2022-07-25T18:15:06.858Z,20.20
2022-07-25T18:17:34.899Z,20.18
2022-07-25T18:20:02.761Z,20.20
2022-07-25T18:22:30.876Z,20.20
2022-07-25T18:24:58.633Z,20.20
2022-07-25T18:27:26.852Z,20.20
2022-07-25T18:29:54.636Z,20.12
2022-07-25T18:32:23.826Z,20.14
2022-07-25T18:34:51.472Z,20.20
2022-07-25T18:37:19.387Z,20.20
2022-07-25T18:39:47.171Z,20.20
2022-07-25T18:42:14.859Z,20.10
2022-07-25T18:44:42.863Z,20.10
2022-07-25T18:47:10.980Z,20.16
2022-07-25T18:49:38.769Z,20.18
2022-07-25T18:52:06.656Z,20.18
2022-07-25T18:54:35.571Z,20.18
2022-07-25T18:57:05.924Z,20.10
2022-07-25T18:59:33.782Z,20.10
2022-07-25T19:02:01.624Z,20.10
2022-07-25T19:04:30.064Z,20.10
2022-07-25T19:06:58.515Z,20.10
2022-07-25T19:09:26.252Z,20.10
2022-07-25T19:11:56.723Z,20.10
2022-07-25T19:14:26.613Z,20.00
2022-07-25T19:16:55.171Z,20.00
2022-07-25T19:19:23.377Z,20.00
2022-07-25T19:21:51.225Z,20.00
2022-07-25T19:24:19.157Z,20.00
2022-07-25T19:26:48.775Z,20.00
2022-07-25T19:29:18.052Z,20.00
2022-07-25T19:31:46.206Z,20.00
2022-07-25T19:34:13.926Z,20.00
2022-07-25T19:36:43.882Z,20.00
2022-07-25T19:39:12.564Z,20.00
2022-07-25T19:41:44.766Z,20.00
2022-07-25T19:44:15.071Z,20.00
2022-07-25T19:46:43.623Z,20.00
2022-07-25T19:49:11.703Z,19.90
2022-07-25T19:51:39.576Z,19.90
2022-07-25T19:54:09.073Z,19.90
2022-07-25T19:56:37.217Z,19.90
2022-07-25T19:59:05.056Z,19.80
2022-07-25T20:01:35.823Z,19.78
2022-07-25T20:04:05.751Z,19.70
2022-07-25T20:06:34.713Z,19.70
2022-07-25T20:09:04.189Z,19.60
2022-07-25T20:11:32.614Z,19.56
2022-07-25T20:14:01.649Z,19.50
2022-07-25T20:16:29.708Z,19.40
2022-07-25T20:18:57.886Z,19.40
2022-07-25T20:21:25.876Z,19.40
2022-07-25T20:23:53.865Z,19.40
2022-07-25T20:26:21.727Z,19.40
2022-07-25T20:28:49.464Z,19.50
2022-07-25T20:31:22.165Z,19.36
2022-07-25T20:33:53.749Z,19.20
2022-07-25T20:36:21.761Z,19.20
2022-07-25T20:38:49.536Z,19.18
2022-07-25T20:41:18.190Z,19.20
2022-07-25T20:43:46.163Z,19.10
2022-07-25T20:46:14.099Z,19.10
2022-07-25T20:48:41.959Z,19.08
2022-07-25T20:51:12.989Z,19.10
2022-07-25T20:53:42.013Z,19.00
2022-07-25T20:56:09.924Z,19.00
2022-07-25T20:58:37.621Z,18.90
2022-07-25T21:01:06.173Z,18.90
2022-07-25T21:03:36.040Z,18.80
2022-07-25T21:06:05.157Z,18.80
2022-07-25T21:08:32.912Z,18.76
2022-07-25T21:11:01.376Z,18.70
2022-07-25T21:13:30.944Z,18.60
2022-07-25T21:16:01.523Z,18.50
2022-07-25T21:18:29.686Z,18.50
2022-07-25T21:21:02.786Z,18.50
2022-07-25T21:23:30.470Z,18.40
2022-07-25T21:25:58.250Z,18.40
2022-07-25T21:28:26.291Z,18.40
2022-07-25T21:30:54.105Z,18.30
2022-07-25T21:33:21.763Z,18.30
2022-07-25T21:35:53.356Z,18.30
2022-07-25T21:38:27.524Z,18.30
2022-07-25T21:40:57.764Z,18.30
2022-07-25T21:43:25.808Z,18.20
2022-07-25T21:45:54.007Z,18.10
2022-07-25T21:48:42.829Z,18.02
2022-07-25T21:51:19.305Z,18.08
2022-07-25T21:53:52.853Z,18.08
2022-07-25T21:56:20.999Z,18.08
2022-07-25T21:58:49.201Z,18.00
2022-07-25T22:01:20.794Z,18.00
2022-07-25T22:03:48.914Z,17.98
2022-07-25T22:06:16.706Z,17.90
2022-07-25T22:08:44.402Z,17.90
2022-07-25T22:11:20.689Z,18.00
2022-07-25T22:14:01.265Z,18.00
2022-07-25T22:16:29.081Z,17.90
2022-07-25T22:18:57.334Z,17.90
2022-07-25T22:21:25.521Z,17.90
2022-07-25T22:23:53.764Z,17.90
2022-07-25T22:26:21.522Z,17.90
2022-07-25T22:28:49.454Z,17.82
2022-07-25T22:31:18.205Z,17.80
2022-07-25T22:33:45.928Z,17.70
2022-07-25T22:36:13.630Z,17.70
2022-07-25T22:38:43.174Z,17.60
2022-07-25T22:41:11.769Z,17.60
2022-07-25T22:43:56.602Z,17.50
2022-07-25T22:46:29.240Z,17.50
2022-07-25T22:48:59.073Z,17.50
2022-07-25T22:51:29.093Z,17.50
2022-07-25T22:53:59.170Z,17.46
2022-07-25T22:56:28.055Z,17.40
2022-07-25T22:58:56.125Z,17.40
2022-07-25T23:01:25.065Z,17.40
2022-07-25T23:03:52.883Z,17.50
2022-07-25T23:06:22.289Z,17.50
2022-07-25T23:08:50.930Z,17.50
2022-07-25T23:11:19.206Z,17.50
2022-07-25T23:13:47.214Z,17.40
2022-07-25T23:16:15.125Z,17.30
2022-07-25T23:18:42.910Z,17.30
2022-07-25T23:21:11.030Z,17.20
2022-07-25T23:23:38.765Z,17.10
2022-07-25T23:26:06.521Z,17.00
2022-07-25T23:28:34.565Z,17.00
2022-07-25T23:31:02.844Z,16.98
2022-07-25T23:33:30.983Z,16.90
2022-07-25T23:35:59.187Z,16.86
2022-07-25T23:38:26.970Z,16.90
2022-07-25T23:40:54.949Z,16.82
2022-07-25T23:43:40.858Z,16.80
2022-07-25T23:46:10.749Z,16.70
2022-07-25T23:48:39.473Z,16.60
2022-07-25T23:51:07.929Z,16.60
2022-07-25T23:53:36.301Z,16.60
2022-07-25T23:56:04.631Z,16.60
2022-07-25T23:58:32.556Z,16.60
